Time;durP1;ratioP1;P1;durP2;ratioP2;P2;SDS_P1;SDS_P2;PMS_P1;PMS_P2;Temp;Humidity;BMP_temperature;BMP_pressure;BME280_temperature;BME280_humidity;BME280_pressure;Samples;Min_cycle;Max_cycle;Signal;HPM_P1;HPM_P2
2023/07/09 00:00:03;;;;;;;;;;;;;;;15.90;46.50;100730.03;5056283;28;1039;-52
2023/07/09 00:02:35;;;;;;;;;;;;;;;15.86;46.76;100726.19;5067395;28;1140;-51
2023/07/09 00:05:00;;;;;;;;;;;;;;;15.81;46.70;100728.91;5071673;28;1161;-47
2023/07/09 00:07:30;;;;;;;;;;;;;;;15.73;46.63;100733.78;5067272;28;1167;-50
2023/07/09 00:09:55;;;;;;;;;;;;;;;15.72;46.67;100721.19;5053591;28;1054;-52
2023/07/09 00:12:21;;;;;;;;;;;;;;;15.83;46.50;100727.53;5067364;28;1143;-51
2023/07/09 00:14:46;;;;;;;;;;;;;;;15.78;46.36;100722.03;5071910;28;1128;-51
2023/07/09 00:17:17;;;;;;;;;;;;;;;15.80;46.44;100721.78;5067297;28;1970;-50
2023/07/09 00:19:44;;;;;;;;;;;;;;;15.77;46.16;100723.13;5071342;28;1118;-50
2023/07/09 00:22:16;;;;;;;;;;;;;;;15.81;46.16;100715.19;5068543;28;860;-50
2023/07/09 00:24:44;;;;;;;;;;;;;;;15.77;46.31;100714.03;5062823;28;1150;-52
2023/07/09 00:27:10;;;;;;;;;;;;;;;15.73;46.15;100714.59;5079145;28;1027;-52
2023/07/09 00:29:35;;;;;;;;;;;;;;;15.66;46.12;100714.03;5067017;28;1254;-49
2023/07/09 00:32:02;;;;;;;;;;;;;;;15.78;45.92;100707.47;5062317;28;1110;-51
2023/07/09 00:34:27;;;;;;;;;;;;;;;15.68;46.14;100706.38;5066619;28;1128;-49
2023/07/09 00:36:53;;;;;;;;;;;;;;;16.20;46.85;100701.00;5061782;28;1895;-51
2023/07/09 00:39:19;;;;;;;;;;;;;;;16.30;47.84;100700.19;5066650;28;1170;-50
2023/07/09 00:41:46;;;;;;;;;;;;;;;16.04;47.54;100706.47;5080011;28;1142;-50
2023/07/09 00:44:33;;;;;;;;;;;;;;;15.92;47.36;100711.38;5060110;28;996;-49
2023/07/09 00:47:00;;;;;;;;;;;;;;;15.90;46.86;100703.41;5073027;28;979;-48
2023/07/09 00:49:46;;;;;;;;;;;;;;;15.77;47.08;100698.44;5069190;28;1203;-51
2023/07/09 00:52:21;;;;;;;;;;;;;;;15.78;46.93;100694.63;5063403;28;1078;-50
2023/07/09 00:54:47;;;;;;;;;;;;;;;15.87;46.57;100700.41;5048929;28;1108;-50
2023/07/09 00:57:17;;;;;;;;;;;;;;;15.79;46.62;100709.13;5041542;28;1973;-52
2023/07/09 00:59:42;;;;;;;;;;;;;;;15.77;46.60;100714.03;5055964;28;1134;-51
2023/07/09 01:02:08;;;;;;;;;;;;;;;15.79;46.20;100706.41;5061769;28;1066;-49
2023/07/09 01:04:33;;;;;;;;;;;;;;;15.79;46.14;100703.66;5048610;28;1135;-51
2023/07/09 01:06:59;;;;;;;;;;;;;;;15.75;46.29;100706.09;5054668;28;1091;-49
2023/07/09 01:09:24;;;;;;;;;;;;;;;15.80;46.14;100708.06;5054648;28;1587;-48
2023/07/09 01:11:50;;;;;;;;;;;;;;;15.85;45.88;100711.66;5079383;28;1102;-48
2023/07/09 01:14:19;;;;;;;;;;;;;;;15.68;46.21;100706.38;5078779;28;1063;-50
2023/07/09 01:16:57;;;;;;;;;;;;;;;15.77;46.20;100708.56;5071660;28;1898;-48
2023/07/09 01:19:25;;;;;;;;;;;;;;;15.78;45.87;100711.06;5059695;28;1118;-48
2023/07/09 01:21:55;;;;;;;;;;;;;;;15.62;46.26;100712.91;5042028;28;1123;-51
2023/07/09 01:24:39;;;;;;;;;;;;;;;15.71;45.98;100710.47;5062353;28;1082;-50
2023/07/09 01:27:07;;;;;;;;;;;;;;;15.71;46.04;100714.06;5078573;28;1118;-46
2023/07/09 01:29:33;;;;;;;;;;;;;;;15.75;45.86;100714.31;5060885;28;1153;-51
2023/07/09 01:31:58;;;;;;;;;;;;;;;15.64;46.16;100713.47;5061517;28;1137;-48
2023/07/09 01:34:25;;;;;;;;;;;;;;;15.63;46.17;100711.81;5065853;28;1155;-51
2023/07/09 01:36:51;;;;;;;;;;;;;;;15.69;46.19;100720.88;5078740;28;1968;-52
2023/07/09 01:39:17;;;;;;;;;;;;;;;15.67;46.12;100726.66;5071999;28;1067;-51
2023/07/09 01:41:42;;;;;;;;;;;;;;;15.64;46.39;100720.88;5059312;28;1059;-52
2023/07/09 01:44:08;;;;;;;;;;;;;;;15.70;46.03;100726.09;5078039;28;1198;-51
2023/07/09 01:46:34;;;;;;;;;;;;;;;15.68;46.29;100731.03;5066357;28;978;-50
2023/07/09 01:48:59;;;;;;;;;;;;;;;15.68;46.05;100728.31;5059098;28;1309;-47
2023/07/09 01:51:28;;;;;;;;;;;;;;;15.63;46.05;100738.44;5078571;28;1137;-50
2023/07/09 01:53:53;;;;;;;;;;;;;;;15.56;46.23;100736.72;5077999;28;1195;-51
2023/07/09 01:56:19;;;;;;;;;;;;;;;16.55;46.80;100737.81;5060769;28;1989;-49
2023/07/09 01:58:44;;;;;;;;;;;;;;;15.99;47.78;100742.13;5046972;28;1179;-48
2023/07/09 02:01:10;;;;;;;;;;;;;;;15.90;47.68;100735.53;5048354;28;1305;-51
2023/07/09 02:03:36;;;;;;;;;;;;;;;15.82;47.63;100738.78;5059234;28;1242;-51
2023/07/09 02:06:09;;;;;;;;;;;;;;;15.75;47.26;100744.47;5060588;28;1279;-49
2023/07/09 02:08:34;;;;;;;;;;;;;;;15.85;46.92;100739.06;5077725;28;1023;-52
2023/07/09 02:11:00;;;;;;;;;;;;;;;15.79;46.79;100744.78;5065681;28;982;-47
2023/07/09 02:13:25;;;;;;;;;;;;;;;15.79;46.48;100750.25;5077713;28;1126;-50
2023/07/09 02:15:51;;;;;;;;;;;;;;;15.80;46.71;100749.19;5047614;28;1967;-51
2023/07/09 02:18:16;;;;;;;;;;;;;;;15.81;46.37;100753.56;5059708;28;1114;-49
2023/07/09 02:20:42;;;;;;;;;;;;;;;15.74;46.36;100760.13;5065456;28;1130;-50
2023/07/09 02:23:07;;;;;;;;;;;;;;;15.77;46.46;100760.66;5076945;28;1549;-51
2023/07/09 02:25:33;;;;;;;;;;;;;;;15.81;46.22;100751.69;5059949;28;1062;-48
2023/07/09 02:27:59;;;;;;;;;;;;;;;15.76;46.29;100762.59;5077720;28;1057;-51
2023/07/09 02:30:24;;;;;;;;;;;;;;;15.79;46.34;100767.56;5030873;28;1310;-50
2023/07/09 02:32:50;;;;;;;;;;;;;;;15.74;46.24;100767.53;5053232;28;1401;-52
2023/07/09 02:35:16;;;;;;;;;;;;;;;15.70;46.35;100775.44;5052593;28;1976;-50
2023/07/09 02:37:41;;;;;;;;;;;;;;;15.73;46.22;100774.91;5064398;28;1158;-47
2023/07/09 02:40:08;;;;;;;;;;;;;;;15.67;46.71;100775.16;5064747;28;1158;-52
2023/07/09 02:42:33;;;;;;;;;;;;;;;15.67;46.38;100776.00;5077558;28;1293;-51
2023/07/09 02:44:59;;;;;;;;;;;;;;;15.69;46.40;100773.78;5064811;28;1201;-50
2023/07/09 02:47:26;;;;;;;;;;;;;;;15.71;46.41;100782.59;5046388;28;1284;-51
2023/07/09 02:49:53;;;;;;;;;;;;;;;15.64;46.68;100781.16;5046430;28;1088;-50
2023/07/09 02:52:18;;;;;;;;;;;;;;;15.64;46.40;100792.13;5076775;28;1060;-48
2023/07/09 02:54:44;;;;;;;;;;;;;;;15.67;46.49;100786.94;5059634;28;1130;-51
2023/07/09 02:57:09;;;;;;;;;;;;;;;15.72;46.13;100797.09;5072096;28;1917;-52
2023/07/09 02:59:35;;;;;;;;;;;;;;;15.72;46.05;100797.94;5069714;28;921;-52
2023/07/09 03:02:01;;;;;;;;;;;;;;;15.68;46.37;100777.66;5042693;28;1276;-51
2023/07/09 03:04:26;;;;;;;;;;;;;;;15.65;46.29;100794.59;5042863;28;1142;-52
2023/07/09 03:06:52;;;;;;;;;;;;;;;15.68;46.12;100804.22;5058685;28;1134;-51
2023/07/09 03:09:18;;;;;;;;;;;;;;;15.55;46.63;100802.78;5077156;28;1051;-52
2023/07/09 03:11:43;;;;;;;;;;;;;;;15.55;46.60;100802.78;5063705;28;1206;-50
2023/07/09 03:14:09;;;;;;;;;;;;;;;16.18;47.65;100800.03;5077080;28;1030;-49
2023/07/09 03:16:35;;;;;;;;;;;;;;;15.98;47.81;100803.56;5071830;28;1968;-54
2023/07/09 03:19:00;;;;;;;;;;;;;;;15.83;47.69;100806.25;5069315;28;1171;-56
2023/07/09 03:21:26;;;;;;;;;;;;;;;15.77;47.52;100807.25;5076251;28;1055;-55
2023/07/09 03:23:52;;;;;;;;;;;;;;;15.80;46.76;100801.31;5058646;28;1257;-53
2023/07/09 03:26:17;;;;;;;;;;;;;;;15.80;46.63;100793.06;5063399;28;1287;-55
2023/07/09 03:28:43;;;;;;;;;;;;;;;15.71;46.64;100806.41;5058959;28;1407;-54
2023/07/09 03:31:08;;;;;;;;;;;;;;;15.68;46.84;100802.31;5066601;28;1201;-55
2023/07/09 03:33:34;;;;;;;;;;;;;;;15.80;46.23;100802.13;5076585;28;1359;-55
2023/07/09 03:35:59;;;;;;;;;;;;;;;15.76;46.38;100800.97;5076187;28;1977;-54
2023/07/09 03:38:25;;;;;;;;;;;;;;;15.77;46.21;100799.03;5071951;28;1085;-55
2023/07/09 03:40:53;;;;;;;;;;;;;;;15.67;46.60;100800.66;5076878;28;1086;-53
2023/07/09 03:43:19;;;;;;;;;;;;;;;15.62;46.27;100803.38;5073901;28;1067;-52
2023/07/09 03:45:45;;;;;;;;;;;;;;;15.74;46.15;100805.91;5067328;28;1187;-55
2023/07/09 03:48:11;;;;;;;;;;;;;;;15.76;46.23;100816.59;5064588;28;1003;-55
2023/07/09 03:50:36;;;;;;;;;;;;;;;15.70;46.29;100813.00;5056466;28;1011;-54
2023/07/09 03:53:02;;;;;;;;;;;;;;;15.80;46.69;100806.78;5068046;28;1086;-50
2023/07/09 03:55:27;;;;;;;;;;;;;;;15.75;46.72;100810.28;5071596;28;1938;-47
2023/07/09 03:57:56;;;;;;;;;;;;;;;15.67;46.86;100808.88;5061970;28;1302;-53
2023/07/09 04:00:21;;;;;;;;;;;;;;;15.64;46.93;100825.03;5062407;28;1213;-50
2023/07/09 04:02:47;;;;;;;;;;;;;;;15.67;46.66;100824.47;5075056;28;1439;-45
2023/07/09 04:05:13;;;;;;;;;;;;;;;16.15;47.74;100805.25;5076384;28;1130;-47
2023/07/09 04:07:38;;;;;;;;;;;;;;;16.13;48.68;100800.06;5076473;28;1098;-47
2023/07/09 04:10:04;;;;;;;;;;;;;;;15.90;48.18;100813.13;5076206;28;1260;-51
2023/07/09 04:12:30;;;;;;;;;;;;;;;15.81;48.12;100811.16;5076644;28;1058;-47
2023/07/09 04:14:55;;;;;;;;;;;;;;;15.83;47.44;100800.75;5076218;28;1229;-46
2023/07/09 04:17:22;;;;;;;;;;;;;;;15.80;47.35;100809.53;5076387;28;1982;-49
2023/07/09 04:19:48;;;;;;;;;;;;;;;15.85;47.14;100815.00;5075993;28;1134;-47
2023/07/09 04:22:14;;;;;;;;;;;;;;;15.70;47.21;100807.53;5075784;28;1238;-49
2023/07/09 04:24:39;;;;;;;;;;;;;;;15.75;47.05;100815.75;5075828;28;1174;-48
2023/07/09 04:27:05;;;;;;;;;;;;;;;15.78;46.97;100804.28;5076451;28;1214;-46
2023/07/09 04:29:33;;;;;;;;;;;;;;;15.80;46.97;100793.06;5075996;28;1149;-46
2023/07/09 04:31:59;;;;;;;;;;;;;;;15.77;46.99;100796.28;5075944;28;1146;-48
2023/07/09 04:34:25;;;;;;;;;;;;;;;15.74;46.90;100803.16;5075826;28;1047;-46
2023/07/09 04:36:50;;;;;;;;;;;;;;;15.95;46.58;100803.25;5076379;28;1914;-46
2023/07/09 04:39:15;;;;;;;;;;;;;;;15.96;46.06;100799.44;5076003;28;1147;-47
2023/07/09 04:41:41;;;;;;;;;;;;;;;16.62;47.45;100795.19;5075587;28;1043;-54
2023/07/09 04:44:06;;;;;;;;;;;;;;;16.35;47.78;100802.56;5075640;28;1129;-53
2023/07/09 04:46:32;;;;;;;;;;;;;;;16.16;47.46;100804.16;5075494;28;1071;-54
2023/07/09 04:48:57;;;;;;;;;;;;;;;16.14;47.14;100800.88;5075797;28;1079;-47
2023/07/09 04:51:23;;;;;;;;;;;;;;;16.30;47.35;100799.81;5076304;28;1170;-52
2023/07/09 04:53:51;;;;;;;;;;;;;;;17.17;46.79;100806.47;5075567;28;1110;-51
2023/07/09 04:56:17;;;;;;;;;;;;;;;16.71;48.51;100799.84;5075648;28;1972;-49
2023/07/09 04:58:42;;;;;;;;;;;;;;;16.53;49.28;100814.94;5075891;28;1102;-54
2023/07/09 05:01:08;;;;;;;;;;;;;;;16.40;50.28;100810.81;5076072;28;1141;-51
2023/07/09 05:03:33;;;;;;;;;;;;;;;16.33;50.66;100802.00;5075847;28;1047;-55
2023/07/09 05:05:59;;;;;;;;;;;;;;;16.32;51.15;100797.63;5076113;28;1061;-55
2023/07/09 05:08:24;;;;;;;;;;;;;;;16.22;51.52;100800.34;5076141;28;1168;-52
2023/07/09 05:10:50;;;;;;;;;;;;;;;16.22;51.65;100801.16;5075925;28;1166;-53
2023/07/09 05:13:16;;;;;;;;;;;;;;;16.15;52.07;100797.03;5078582;28;1182;-47
2023/07/09 05:15:42;;;;;;;;;;;;;;;16.08;52.40;100792.59;5079601;28;1913;-54
2023/07/09 05:18:08;;;;;;;;;;;;;;;16.12;52.59;100803.88;5078999;28;1131;-54
2023/07/09 05:20:34;;;;;;;;;;;;;;;16.08;53.05;100795.34;5079594;28;1138;-51
2023/07/09 05:22:59;;;;;;;;;;;;;;;16.00;53.34;100795.88;5064770;28;1109;-56
2023/07/09 05:25:25;;;;;;;;;;;;;;;15.94;53.68;100805.19;5078911;28;1062;-54
2023/07/09 05:27:51;;;;;;;;;;;;;;;15.97;53.71;100799.16;5079213;28;1162;-53
2023/07/09 05:30:17;;;;;;;;;;;;;;;15.90;54.35;100804.88;5079350;28;1138;-53
2023/07/09 05:32:42;;;;;;;;;;;;;;;15.93;54.12;100794.50;5078807;28;1238;-58
2023/07/09 05:35:08;;;;;;;;;;;;;;;15.91;54.18;100809.28;5079039;28;1113;-48
2023/07/09 05:37:34;;;;;;;;;;;;;;;15.87;54.55;100807.34;5078829;28;1910;-50
2023/07/09 05:39:59;;;;;;;;;;;;;;;15.83;54.81;100801.56;5079124;28;1067;-49
2023/07/09 05:42:25;;;;;;;;;;;;;;;15.83;54.82;100812.53;5079069;28;1099;-51
2023/07/09 05:44:51;;;;;;;;;;;;;;;15.80;55.12;100810.34;5079116;28;1118;-48
2023/07/09 05:47:16;;;;;;;;;;;;;;;15.82;55.06;100810.06;5078378;28;1170;-48
2023/07/09 05:49:42;;;;;;;;;;;;;;;15.80;55.30;100806.78;5078652;28;1047;-49
2023/07/09 05:52:07;;;;;;;;;;;;;;;15.74;55.24;100809.47;5079049;28;1085;-54
2023/07/09 05:54:33;;;;;;;;;;;;;;;15.71;55.43;100800.94;5078972;28;1067;-54
2023/07/09 05:56:58;;;;;;;;;;;;;;;15.76;55.29;100811.13;5078683;28;1974;-53
2023/07/09 05:59:24;;;;;;;;;;;;;;;15.70;55.50;100797.38;5078479;28;1015;-54
2023/07/09 06:01:49;;;;;;;;;;;;;;;15.68;55.58;100809.69;5078534;28;1138;-52
2023/07/09 06:04:16;;;;;;;;;;;;;;;15.66;55.83;100807.22;5078854;28;1170;-52
2023/07/09 06:06:41;;;;;;;;;;;;;;;15.66;55.73;100803.66;5078099;28;1051;-52
2023/07/09 06:09:10;;;;;;;;;;;;;;;15.65;56.03;100811.03;5078518;28;1202;-55
2023/07/09 06:11:35;;;;;;;;;;;;;;;15.66;55.91;100803.66;5077826;28;1082;-59
2023/07/09 06:14:01;;;;;;;;;;;;;;;15.64;55.82;100797.63;5078562;28;1334;-54
2023/07/09 06:16:27;;;;;;;;;;;;;;;15.59;56.37;100806.66;5078250;28;1894;-55
2023/07/09 06:18:52;;;;;;;;;;;;;;;15.63;56.36;100807.75;5078186;28;1043;-51
2023/07/09 06:21:18;;;;;;;;;;;;;;;15.69;55.98;100790.25;5078547;28;1075;-53
2023/07/09 06:23:44;;;;;;;;;;;;;;;15.74;56.01;100801.22;5077164;28;1121;-46
2023/07/09 06:26:10;;;;;;;;;;;;;;;15.69;56.44;100801.19;5078227;28;1167;-48
2023/07/09 06:28:35;;;;;;;;;;;;;;;15.67;56.25;100797.06;5059855;28;1078;-54
2023/07/09 06:31:01;;;;;;;;;;;;;;;15.65;56.48;100797.34;5078082;28;1137;-51
2023/07/09 06:33:27;;;;;;;;;;;;;;;15.66;56.61;100790.78;5077812;28;1166;-52
2023/07/09 06:35:53;;;;;;;;;;;;;;;15.62;56.73;100802.56;5077781;28;1901;-52
2023/07/09 06:38:19;;;;;;;;;;;;;;;15.65;56.81;100800.09;5077693;28;1234;-53
2023/07/09 06:40:44;;;;;;;;;;;;;;;15.59;56.69;100800.34;5077446;28;1117;-54
2023/07/09 06:43:10;;;;;;;;;;;;;;;15.62;56.56;100791.59;5078171;28;1178;-50
2023/07/09 06:45:38;;;;;;;;;;;;;;;15.55;56.70;100789.91;5059615;28;1244;-52
2023/07/09 06:48:04;;;;;;;;;;;;;;;15.61;56.53;100785.25;5077511;28;1237;-50
2023/07/09 06:50:32;;;;;;;;;;;;;;;15.58;56.67;100796.75;5077726;28;1046;-51
2023/07/09 06:52:58;;;;;;;;;;;;;;;15.56;56.72;100796.22;5078017;28;1123;-51
2023/07/09 06:55:23;;;;;;;;;;;;;;;15.55;56.85;100795.38;5077247;28;1921;-53
2023/07/09 06:57:49;;;;;;;;;;;;;;;15.54;56.72;100792.91;5077717;28;1078;-54
2023/07/09 07:00:15;;;;;;;;;;;;;;;15.56;56.54;100782.50;5076982;28;1143;-56
2023/07/09 07:02:40;;;;;;;;;;;;;;;15.54;56.84;100784.69;5077545;28;1114;-50
2023/07/09 07:05:06;;;;;;;;;;;;;;;15.54;56.72;100780.03;5077475;28;1166;-51
2023/07/09 07:07:31;;;;;;;;;;;;;;;15.60;56.74;100791.84;5077726;28;1055;-55
2023/07/09 07:09:57;;;;;;;;;;;;;;;15.81;57.02;100772.75;5077192;28;1032;-50
2023/07/09 07:12:29;;;;;;;;;;;;;;;15.79;56.83;100777.69;5076734;28;1138;-55
2023/07/09 07:14:54;;;;;;;;;;;;;;;15.73;56.82;100774.91;5077378;28;1110;-58
2023/07/09 07:17:20;;;;;;;;;;;;;;;15.72;56.72;100781.50;5076846;28;1902;-56
2023/07/09 07:19:46;;;;;;;;;;;;;;;15.73;56.80;100768.59;5077348;28;1131;-52
2023/07/09 07:22:11;;;;;;;;;;;;;;;15.68;56.69;100783.13;5076949;28;1516;-54
2023/07/09 07:24:36;;;;;;;;;;;;;;;15.70;56.72;100758.19;5066874;28;1115;-51
2023/07/09 07:27:02;;;;;;;;;;;;;;;15.65;56.48;100766.38;5074938;28;1425;-54
2023/07/09 07:29:28;;;;;;;;;;;;;;;15.71;56.56;100777.09;5076967;28;1513;-55
2023/07/09 07:31:53;;;;;;;;;;;;;;;15.68;56.58;100783.13;5077087;28;1078;-56
2023/07/09 07:34:19;;;;;;;;;;;;;;;15.66;56.91;100763.38;5076489;28;1070;-56
2023/07/09 07:36:44;;;;;;;;;;;;;;;15.65;56.64;100772.66;5076223;28;1902;-55
2023/07/09 07:39:10;;;;;;;;;;;;;;;15.70;56.73;100780.94;5076980;28;1429;-50
2023/07/09 07:41:35;;;;;;;;;;;;;;;15.70;56.52;100780.13;5076867;28;1152;-54
2023/07/09 07:44:02;;;;;;;;;;;;;;;15.67;56.59;100784.22;5077287;28;1135;-57
2023/07/09 07:46:29;;;;;;;;;;;;;;;15.69;56.50;100746.38;5076765;28;1440;-54
2023/07/09 07:48:54;;;;;;;;;;;;;;;15.64;56.63;100778.44;5076141;28;1443;-53
2023/07/09 07:51:22;;;;;;;;;;;;;;;15.73;56.61;100776.84;5076413;28;1079;-51
2023/07/09 07:53:48;;;;;;;;;;;;;;;15.67;56.42;100792.44;5076581;28;1113;-54
2023/07/09 07:56:13;;;;;;;;;;;;;;;15.63;56.72;100790.50;5076325;28;1906;-55
2023/07/09 07:58:39;;;;;;;;;;;;;;;15.62;56.77;100778.69;5076566;28;1146;-54
2023/07/09 08:01:04;;;;;;;;;;;;;;;15.60;56.43;100804.72;5065413;28;1087;-55
2023/07/09 08:03:30;;;;;;;;;;;;;;;15.58;56.55;100796.75;5074596;28;1068;-57
2023/07/09 08:05:55;;;;;;;;;;;;;;;16.55;56.49;100799.03;5076495;28;1222;-54
2023/07/09 08:08:21;;;;;;;;;;;;;;;16.89;56.78;100803.19;5076126;28;1230;-57
2023/07/09 08:10:46;;;;;;;;;;;;;;;16.38;57.78;100804.78;5076599;28;1194;-57
2023/07/09 08:13:13;;;;;;;;;;;;;;;16.21;57.89;100790.44;5075815;28;1182;-50
2023/07/09 08:15:38;;;;;;;;;;;;;;;16.15;57.23;100797.03;5076244;28;1978;-55
2023/07/09 08:18:04;;;;;;;;;;;;;;;16.09;57.07;100793.44;5076102;28;1102;-56
2023/07/09 08:20:29;;;;;;;;;;;;;;;16.02;57.26;100799.19;5075539;28;1067;-58
2023/07/09 08:22:55;;;;;;;;;;;;;;;16.05;56.94;100779.44;5076357;28;1043;-52
2023/07/09 08:25:20;;;;;;;;;;;;;;;16.03;56.63;100800.00;5076558;28;903;-56
2023/07/09 08:27:46;;;;;;;;;;;;;;;15.98;56.93;100776.13;5076184;28;1098;-56
2023/07/09 08:30:11;;;;;;;;;;;;;;;16.00;56.74;100782.16;5076134;28;1418;-56
2023/07/09 08:32:37;;;;;;;;;;;;;;;15.93;56.90;100775.28;5075472;28;1027;-56
2023/07/09 08:35:02;;;;;;;;;;;;;;;15.94;56.69;100772.28;5076166;28;1110;-55
2023/07/09 08:37:28;;;;;;;;;;;;;;;15.98;57.09;100770.66;5075890;28;1992;-55
2023/07/09 08:39:53;;;;;;;;;;;;;;;15.93;57.15;100772.56;5075963;28;1417;-51
2023/07/09 08:42:21;;;;;;;;;;;;;;;16.02;57.19;100765.44;5076027;28;1019;-53
2023/07/09 08:44:59;;;;;;;;;;;;;;;15.95;57.36;100773.94;5058251;28;1079;-54
2023/07/09 08:47:38;;;;;;;;;;;;;;;15.89;57.29;100773.09;5077561;28;1201;-53
2023/07/09 08:50:11;;;;;;;;;;;;;;;15.93;56.89;100784.34;5061483;28;893;-56
2023/07/09 08:52:37;;;;;;;;;;;;;;;15.87;57.17;100774.44;5061885;28;1063;-53
2023/07/09 08:55:07;;;;;;;;;;;;;;;15.85;56.82;100779.38;5079743;28;1097;-52
2023/07/09 08:57:34;;;;;;;;;;;;;;;15.90;56.63;100779.41;5062465;28;1906;-58
2023/07/09 09:00:02;;;;;;;;;;;;;;;15.84;56.70;100781.28;5079556;28;1249;-52
2023/07/09 09:02:44;;;;;;;;;;;;;;;15.84;56.64;100792.25;5079785;28;1035;-54
2023/07/09 09:05:09;;;;;;;;;;;;;;;15.82;56.84;100788.13;5079650;28;1095;-52
2023/07/09 09:07:39;;;;;;;;;;;;;;;15.83;56.74;100789.78;5062000;28;1099;-55
2023/07/09 09:10:05;;;;;;;;;;;;;;;15.82;56.63;100799.09;5061799;28;1146;-52
2023/07/09 09:12:36;;;;;;;;;;;;;;;15.82;56.71;100804.59;5079043;28;1159;-50
2023/07/09 09:15:04;;;;;;;;;;;;;;;15.80;56.45;100809.53;5079741;28;1128;-53
2023/07/09 09:17:29;;;;;;;;;;;;;;;15.86;56.24;100812.00;5061623;28;1922;-50
2023/07/09 09:19:56;;;;;;;;;;;;;;;15.86;56.33;100805.69;5061745;28;1043;-54
2023/07/09 09:22:23;;;;;;;;;;;;;;;15.77;56.33;100796.28;5061403;28;1019;-53
2023/07/09 09:24:58;;;;;;;;;;;;;;;15.74;56.32;100814.13;5061523;28;1083;-54
2023/07/09 09:27:23;;;;;;;;;;;;;;;15.74;56.38;100782.03;5079665;28;1059;-53
2023/07/09 09:29:49;;;;;;;;;;;;;;;15.78;56.36;100822.63;5079136;28;1217;-51
2023/07/09 09:32:22;;;;;;;;;;;;;;;15.73;56.13;100818.78;5079046;28;1095;-52
2023/07/09 09:34:48;;;;;;;;;;;;;;;15.72;56.27;100806.19;5079484;28;1153;-50
2023/07/09 09:37:15;;;;;;;;;;;;;;;15.77;56.07;100830.03;5061123;28;1898;-51
2023/07/09 09:39:40;;;;;;;;;;;;;;;15.74;56.41;100803.97;5061497;28;1150;-51
2023/07/09 09:42:10;;;;;;;;;;;;;;;15.74;56.35;100789.47;5060940;28;1079;-51
2023/07/09 09:44:35;;;;;;;;;;;;;;;15.72;56.36;100828.09;5061126;28;1284;-52
2023/07/09 09:47:00;;;;;;;;;;;;;;;15.74;56.04;100828.66;5078891;28;1229;-51
2023/07/09 09:49:26;;;;;;;;;;;;;;;15.70;56.22;100824.78;5078183;28;1185;-52
2023/07/09 09:51:55;;;;;;;;;;;;;;;15.73;56.35;100818.78;5078613;28;1226;-49
2023/07/09 09:54:24;;;;;;;;;;;;;;;15.79;56.10;100822.38;5078620;28;1182;-53
2023/07/09 09:56:50;;;;;;;;;;;;;;;15.76;56.18;100822.91;5078865;28;1910;-48
2023/07/09 09:59:24;;;;;;;;;;;;;;;15.74;56.33;100831.38;5077638;28;1106;-50
2023/07/09 10:01:57;;;;;;;;;;;;;;;15.73;55.85;100824.25;5078322;28;1127;-50
2023/07/09 10:04:22;;;;;;;;;;;;;;;15.72;56.13;100841.81;5081355;28;1085;-52
2023/07/09 10:06:52;;;;;;;;;;;;;;;15.73;56.23;100824.25;5079996;28;1150;-49
2023/07/09 10:09:20;;;;;;;;;;;;;;;15.77;56.09;100829.19;5060510;28;1079;-51
2023/07/09 10:11:58;;;;;;;;;;;;;;;15.67;56.30;100833.56;5078406;28;1273;-52
2023/07/09 10:14:30;;;;;;;;;;;;;;;15.79;55.92;100827.03;5077873;28;1090;-52
2023/07/09 10:16:59;;;;;;;;;;;;;;;15.82;56.08;100832.00;5077921;28;1906;-53
2023/07/09 10:19:25;;;;;;;;;;;;;;;15.71;56.00;100834.66;5060420;28;1186;-52
2023/07/09 10:21:57;;;;;;;;;;;;;;;15.74;56.14;100842.34;5078531;28;1091;-49
2023/07/09 10:24:41;;;;;;;;;;;;;;;15.80;56.29;100828.72;5060189;28;1154;-52
2023/07/09 10:27:12;;;;;;;;;;;;;;;15.72;56.46;100844.56;5077789;28;860;-50
2023/07/09 10:29:41;;;;;;;;;;;;;;;15.71;56.49;100842.06;5078062;28;1016;-50
2023/07/09 10:32:10;;;;;;;;;;;;;;;15.75;56.57;100840.44;5078013;28;1221;-47
2023/07/09 10:34:39;;;;;;;;;;;;;;;15.70;56.86;100837.69;5059807;28;1158;-49
2023/07/09 10:37:23;;;;;;;;;;;;;;;15.78;56.71;100830.84;5076307;28;1902;-50
2023/07/09 10:39:50;;;;;;;;;;;;;;;15.75;56.81;100832.22;5068145;28;1232;-52
2023/07/09 10:42:34;;;;;;;;;;;;;;;15.74;56.48;100836.88;5060665;28;1159;-50
2023/07/09 10:45:07;;;;;;;;;;;;;;;15.69;56.57;100817.66;5077878;28;1062;-52
2023/07/09 10:47:34;;;;;;;;;;;;;;;15.74;56.59;100828.66;5047126;28;1079;-51
2023/07/09 10:50:00;;;;;;;;;;;;;;;15.76;56.59;100824.81;5059588;28;1314;-52
2023/07/09 10:52:52;;;;;;;;;;;;;;;15.79;56.71;100829.78;5060124;28;1225;-49
2023/07/09 10:55:18;;;;;;;;;;;;;;;15.76;56.68;100833.06;5073479;28;1290;-49
2023/07/09 10:58:06;;;;;;;;;;;;;;;15.78;56.82;100819.88;5077294;28;1901;-53
2023/07/09 11:00:38;;;;;;;;;;;;;;;15.79;56.59;100821.53;5031125;28;1106;-51
2023/07/09 11:03:14;;;;;;;;;;;;;;;15.79;56.60;100816.06;5057727;28;934;-52
2023/07/09 11:05:40;;;;;;;;;;;;;;;15.79;56.71;100827.03;5059248;28;1114;-50
2023/07/09 11:08:06;;;;;;;;;;;;;;;15.77;56.55;100812.75;5076626;28;1086;-53
2023/07/09 11:10:34;;;;;;;;;;;;;;;15.80;56.72;100815.00;5059160;28;1099;-50
2023/07/09 11:13:01;;;;;;;;;;;;;;;15.77;56.53;100801.78;5059298;28;1134;-52
2023/07/09 11:15:34;;;;;;;;;;;;;;;15.77;56.75;100827.31;5058863;28;883;-51
2023/07/09 11:18:00;;;;;;;;;;;;;;;15.81;56.72;100822.13;5076689;28;1104;-52
2023/07/09 11:20:27;;;;;;;;;;;;;;;15.78;56.45;100815.25;5059483;28;1079;-52
2023/07/09 11:22:54;;;;;;;;;;;;;;;15.81;56.57;100836.66;5077198;28;1054;-54
2023/07/09 11:25:27;;;;;;;;;;;;;;;15.79;56.80;100838.84;5076608;28;1054;-52
2023/07/09 11:27:56;;;;;;;;;;;;;;;15.76;56.62;100833.06;5076638;28;1086;-52
2023/07/09 11:30:25;;;;;;;;;;;;;;;15.85;56.70;100836.94;5076820;28;1031;-52
2023/07/09 11:32:56;;;;;;;;;;;;;;;15.76;56.89;100841.28;5076522;28;1142;-52
2023/07/09 11:35:23;;;;;;;;;;;;;;;15.79;56.75;100832.50;5076912;28;1039;-51
2023/07/09 11:37:48;;;;;;;;;;;;;;;15.78;56.62;100830.84;5076174;28;1909;-53
2023/07/09 11:40:14;;;;;;;;;;;;;;;15.79;56.64;100827.03;5077520;28;1101;-46
2023/07/09 11:43:05;;;;;;;;;;;;;;;15.80;56.70;100828.72;5076979;28;1122;-50
2023/07/09 11:45:31;;;;;;;;;;;;;;;15.80;56.79;100836.94;5071748;28;1244;-46
2023/07/09 11:48:20;;;;;;;;;;;;;;;15.79;56.46;100832.50;5076653;28;1215;-49
2023/07/09 11:50:46;;;;;;;;;;;;;;;15.79;56.92;100830.63;5058619;28;1033;-52
2023/07/09 11:53:12;;;;;;;;;;;;;;;15.77;56.73;100830.03;5058497;28;1067;-52
2023/07/09 11:55:41;;;;;;;;;;;;;;;15.81;56.66;100814.75;5076649;28;1894;-50
2023/07/09 11:58:08;;;;;;;;;;;;;;;15.79;56.45;100832.50;5075635;28;1074;-49
2023/07/09 12:00:43;;;;;;;;;;;;;;;15.84;56.71;100819.69;5076221;28;1147;-49
2023/07/09 12:03:15;;;;;;;;;;;;;;;15.82;56.76;100827.38;5076052;28;1046;-51
2023/07/09 12:05:41;;;;;;;;;;;;;;;15.84;56.51;100827.91;5058583;28;1143;-48
2023/07/09 12:08:06;;;;;;;;;;;;;;;15.81;56.78;100816.63;5058196;28;1110;-53
2023/07/09 12:10:33;;;;;;;;;;;;;;;15.78;56.74;100819.88;5058496;28;1181;-51
2023/07/09 12:12:59;;;;;;;;;;;;;;;15.84;56.46;100824.34;5075856;28;1086;-52
2023/07/09 12:15:25;;;;;;;;;;;;;;;15.78;56.76;100815.25;5075632;28;895;-50
2023/07/09 12:18:02;;;;;;;;;;;;;;;15.79;56.88;100814.16;5075524;28;1914;-52
2023/07/09 12:20:31;;;;;;;;;;;;;;;15.82;56.64;100812.81;5076547;28;1196;-53
2023/07/09 12:22:56;;;;;;;;;;;;;;;15.79;56.56;100829.78;5075351;28;1182;-50
2023/07/09 12:25:23;;;;;;;;;;;;;;;15.76;56.90;100820.16;5058449;28;1059;-52
2023/07/09 12:27:49;;;;;;;;;;;;;;;15.77;56.89;100812.75;5075898;28;1046;-47
2023/07/09 12:30:14;;;;;;;;;;;;;;;15.84;56.49;100813.38;5075975;28;1098;-49
2023/07/09 12:32:44;;;;;;;;;;;;;;;15.78;56.90;100807.03;5076111;28;1051;-51
2023/07/09 12:35:11;;;;;;;;;;;;;;;15.87;56.70;100808.16;5058284;28;1088;-48
2023/07/09 12:37:37;;;;;;;;;;;;;;;15.86;56.40;100805.69;5075893;28;1910;-50
2023/07/09 12:40:03;;;;;;;;;;;;;;;15.79;56.66;100811.41;5057550;28;865;-49
2023/07/09 12:42:37;;;;;;;;;;;;;;;15.79;56.72;100797.72;5076502;28;1011;-49
2023/07/09 12:45:03;;;;;;;;;;;;;;;15.86;56.66;100805.69;5076039;28;1055;-50
2023/07/09 12:47:28;;;;;;;;;;;;;;;15.89;56.70;100810.63;5058291;28;1083;-52